sensor_id;sensor_type;location;lat;lon;timestamp;P1;durP1;ratioP1;P2;durP2;ratioP2
45011;SDS011;63444;48.148;11.542;2024-03-06T00:01:53;17.23;;;15.37;;
45011;SDS011;63444;48.148;11.542;2024-03-06T00:04:18;16.90;;;15.10;;
45011;SDS011;63444;48.148;11.542;2024-03-06T00:06:44;16.33;;;14.63;;
45011;SDS011;63444;48.148;11.542;2024-03-06T00:09:09;15.67;;;14.07;;
45011;SDS011;63444;48.148;11.542;2024-03-06T00:11:35;16.87;;;14.93;;
45011;SDS011;63444;48.148;11.542;2024-03-06T00:14:02;15.70;;;14.07;;
45011;SDS011;63444;48.148;11.542;2024-03-06T00:16:30;16.53;;;14.83;;
45011;SDS011;63444;48.148;11.542;2024-03-06T00:18:56;16.10;;;14.40;;
45011;SDS011;63444;48.148;11.542;2024-03-06T00:21:21;17.47;;;15.53;;
45011;SDS011;63444;48.148;11.542;2024-03-06T00:23:47;17.47;;;15.67;;
45011;SDS011;63444;48.148;11.542;2024-03-06T00:26:13;16.97;;;15.23;;
45011;SDS011;63444;48.148;11.542;2024-03-06T00:28:38;16.37;;;14.77;;
45011;SDS011;63444;48.148;11.542;2024-03-06T00:31:07;16.00;;;14.40;;
45011;SDS011;63444;48.148;11.542;2024-03-06T00:33:33;14.90;;;13.40;;
45011;SDS011;63444;48.148;11.542;2024-03-06T00:35:58;14.70;;;13.20;;
45011;SDS011;63444;48.148;11.542;2024-03-06T00:38:24;15.03;;;13.53;;
45011;SDS011;63444;48.148;11.542;2024-03-06T00:40:50;14.83;;;12.80;;
45011;SDS011;63444;48.148;11.542;2024-03-06T00:43:15;14.07;;;12.60;;
45011;SDS011;63444;48.148;11.542;2024-03-06T00:45:41;13.63;;;12.23;;
45011;SDS011;63444;48.148;11.542;2024-03-06T00:48:07;13.27;;;11.97;;
45011;SDS011;63444;48.148;11.542;2024-03-06T00:50:33;13.93;;;12.53;;
45011;SDS011;63444;48.148;11.542;2024-03-06T00:52:58;13.63;;;12.23;;
45011;SDS011;63444;48.148;11.542;2024-03-06T00:55:24;13.93;;;12.53;;
45011;SDS011;63444;48.148;11.542;2024-03-06T00:57:50;14.40;;;13.00;;
45011;SDS011;63444;48.148;11.542;2024-03-06T01:00:15;13.50;;;12.20;;
45011;SDS011;63444;48.148;11.542;2024-03-06T01:02:41;14.10;;;12.70;;
45011;SDS011;63444;48.148;11.542;2024-03-06T01:05:07;14.33;;;12.90;;
45011;SDS011;63444;48.148;11.542;2024-03-06T01:07:34;15.70;;;14.20;;
45011;SDS011;63444;48.148;11.542;2024-03-06T01:10:02;15.93;;;14.33;;
45011;SDS011;63444;48.148;11.542;2024-03-06T01:12:28;14.73;;;13.33;;
45011;SDS011;63444;48.148;11.542;2024-03-06T01:14:54;13.07;;;11.77;;
45011;SDS011;63444;48.148;11.542;2024-03-06T01:17:20;14.40;;;13.00;;
45011;SDS011;63444;48.148;11.542;2024-03-06T01:19:45;14.83;;;13.40;;
45011;SDS011;63444;48.148;11.542;2024-03-06T01:22:11;15.57;;;14.07;;
45011;SDS011;63444;48.148;11.542;2024-03-06T01:24:40;15.63;;;14.13;;
45011;SDS011;63444;48.148;11.542;2024-03-06T01:27:05;15.73;;;13.80;;
45011;SDS011;63444;48.148;11.542;2024-03-06T01:29:31;13.87;;;12.47;;
45011;SDS011;63444;48.148;11.542;2024-03-06T01:31:57;14.80;;;13.40;;
45011;SDS011;63444;48.148;11.542;2024-03-06T01:34:23;14.03;;;12.63;;
45011;SDS011;63444;48.148;11.542;2024-03-06T01:36:50;15.53;;;13.93;;
45011;SDS011;63444;48.148;11.542;2024-03-06T01:39:15;14.30;;;12.80;;
45011;SDS011;63444;48.148;11.542;2024-03-06T01:41:48;16.20;;;14.50;;
45011;SDS011;63444;48.148;11.542;2024-03-06T01:44:15;14.70;;;13.30;;
45011;SDS011;63444;48.148;11.542;2024-03-06T01:46:42;17.53;;;14.73;;
45011;SDS011;63444;48.148;11.542;2024-03-06T01:49:09;17.43;;;15.63;;
45011;SDS011;63444;48.148;11.542;2024-03-06T01:51:38;16.63;;;14.90;;
45011;SDS011;63444;48.148;11.542;2024-03-06T01:54:04;18.67;;;15.97;;
45011;SDS011;63444;48.148;11.542;2024-03-06T01:56:31;18.47;;;16.47;;
45011;SDS011;63444;48.148;11.542;2024-03-06T01:58:59;15.50;;;14.00;;
45011;SDS011;63444;48.148;11.542;2024-03-06T02:01:25;18.17;;;16.27;;
45011;SDS011;63444;48.148;11.542;2024-03-06T02:03:51;16.47;;;14.77;;
45011;SDS011;63444;48.148;11.542;2024-03-06T02:06:17;20.23;;;16.70;;
45011;SDS011;63444;48.148;11.542;2024-03-06T02:08:45;17.83;;;15.97;;
45011;SDS011;63444;48.148;11.542;2024-03-06T02:11:11;19.40;;;17.30;;
45011;SDS011;63444;48.148;11.542;2024-03-06T02:13:38;18.70;;;16.70;;
45011;SDS011;63444;48.148;11.542;2024-03-06T02:16:04;19.30;;;17.23;;
45011;SDS011;63444;48.148;11.542;2024-03-06T02:18:30;22.73;;;19.57;;
45011;SDS011;63444;48.148;11.542;2024-03-06T02:20:56;19.50;;;17.30;;
45011;SDS011;63444;48.148;11.542;2024-03-06T02:23:22;22.23;;;19.00;;
45011;SDS011;63444;48.148;11.542;2024-03-06T02:25:47;22.30;;;18.63;;
45011;SDS011;63444;48.148;11.542;2024-03-06T02:28:13;21.53;;;18.80;;
45011;SDS011;63444;48.148;11.542;2024-03-06T02:30:39;22.73;;;19.43;;
45011;SDS011;63444;48.148;11.542;2024-03-06T02:33:05;26.53;;;21.13;;
45011;SDS011;63444;48.148;11.542;2024-03-06T02:35:31;24.27;;;20.43;;
45011;SDS011;63444;48.148;11.542;2024-03-06T02:37:59;24.03;;;18.93;;
45011;SDS011;63444;48.148;11.542;2024-03-06T02:40:24;23.73;;;19.87;;
45011;SDS011;63444;48.148;11.542;2024-03-06T02:42:50;24.37;;;19.57;;
45011;SDS011;63444;48.148;11.542;2024-03-06T02:45:16;21.27;;;17.33;;
45011;SDS011;63444;48.148;11.542;2024-03-06T02:47:41;25.43;;;20.20;;
45011;SDS011;63444;48.148;11.542;2024-03-06T02:50:09;22.60;;;19.33;;
45011;SDS011;63444;48.148;11.542;2024-03-06T02:52:35;27.47;;;20.80;;
45011;SDS011;63444;48.148;11.542;2024-03-06T02:55:01;25.43;;;19.77;;
45011;SDS011;63444;48.148;11.542;2024-03-06T02:57:27;23.90;;;19.73;;
45011;SDS011;63444;48.148;11.542;2024-03-06T02:59:56;24.03;;;19.57;;
45011;SDS011;63444;48.148;11.542;2024-03-06T03:02:22;25.23;;;19.13;;
45011;SDS011;63444;48.148;11.542;2024-03-06T03:04:49;24.20;;;19.33;;
45011;SDS011;63444;48.148;11.542;2024-03-06T03:07:15;22.50;;;18.37;;
45011;SDS011;63444;48.148;11.542;2024-03-06T03:09:40;20.60;;;17.20;;
45011;SDS011;63444;48.148;11.542;2024-03-06T03:12:06;24.13;;;18.90;;
45011;SDS011;63444;48.148;11.542;2024-03-06T03:14:32;20.63;;;17.27;;
45011;SDS011;63444;48.148;11.542;2024-03-06T03:16:59;23.33;;;18.27;;
45011;SDS011;63444;48.148;11.542;2024-03-06T03:19:25;21.33;;;17.77;;
45011;SDS011;63444;48.148;11.542;2024-03-06T03:21:51;20.63;;;17.13;;
45011;SDS011;63444;48.148;11.542;2024-03-06T03:24:16;23.77;;;18.43;;
45011;SDS011;63444;48.148;11.542;2024-03-06T03:26:45;15.77;;;12.93;;
45011;SDS011;63444;48.148;11.542;2024-03-06T03:29:10;12.67;;;10.37;;
45011;SDS011;63444;48.148;11.542;2024-03-06T03:31:36;8.80;;;7.70;;
45011;SDS011;63444;48.148;11.542;2024-03-06T03:34:03;6.37;;;5.77;;
45011;SDS011;63444;48.148;11.542;2024-03-06T03:36:30;4.97;;;4.47;;
45011;SDS011;63444;48.148;11.542;2024-03-06T03:38:56;4.57;;;4.13;;
45011;SDS011;63444;48.148;11.542;2024-03-06T03:41:21;4.50;;;3.93;;
45011;SDS011;63444;48.148;11.542;2024-03-06T03:43:47;3.60;;;3.30;;
45011;SDS011;63444;48.148;11.542;2024-03-06T03:46:14;3.40;;;3.10;;
45011;SDS011;63444;48.148;11.542;2024-03-06T03:48:39;3.07;;;2.80;;
45011;SDS011;63444;48.148;11.542;2024-03-06T03:51:05;3.50;;;3.20;;
45011;SDS011;63444;48.148;11.542;2024-03-06T03:53:35;3.23;;;2.53;;
45011;SDS011;63444;48.148;11.542;2024-03-06T03:56:01;3.33;;;3.03;;
45011;SDS011;63444;48.148;11.542;2024-03-06T03:58:28;3.20;;;2.90;;
45011;SDS011;63444;48.148;11.542;2024-03-06T04:00:53;2.97;;;2.73;;
45011;SDS011;63444;48.148;11.542;2024-03-06T04:03:20;2.90;;;2.70;;
45011;SDS011;63444;48.148;11.542;2024-03-06T04:05:47;3.00;;;2.70;;
45011;SDS011;63444;48.148;11.542;2024-03-06T04:08:13;3.23;;;2.97;;
45011;SDS011;63444;48.148;11.542;2024-03-06T04:10:39;3.27;;;2.50;;
45011;SDS011;63444;48.148;11.542;2024-03-06T04:13:06;3.23;;;2.93;;
45011;SDS011;63444;48.148;11.542;2024-03-06T04:15:32;3.30;;;3.00;;
45011;SDS011;63444;48.148;11.542;2024-03-06T04:17:58;3.60;;;3.30;;
45011;SDS011;63444;48.148;11.542;2024-03-06T04:20:23;3.53;;;3.23;;
45011;SDS011;63444;48.148;11.542;2024-03-06T04:22:49;3.13;;;2.83;;
45011;SDS011;63444;48.148;11.542;2024-03-06T04:25:16;3.43;;;3.13;;
45011;SDS011;63444;48.148;11.542;2024-03-06T04:27:42;3.47;;;3.17;;
45011;SDS011;63444;48.148;11.542;2024-03-06T04:30:08;3.10;;;2.80;;
45011;SDS011;63444;48.148;11.542;2024-03-06T04:32:34;3.17;;;2.87;;
45011;SDS011;63444;48.148;11.542;2024-03-06T04:35:00;3.20;;;2.90;;
45011;SDS011;63444;48.148;11.542;2024-03-06T04:37:25;3.60;;;3.30;;
45011;SDS011;63444;48.148;11.542;2024-03-06T04:39:51;3.77;;;3.10;;
45011;SDS011;63444;48.148;11.542;2024-03-06T04:42:17;3.40;;;3.00;;
45011;SDS011;63444;48.148;11.542;2024-03-06T04:44:45;3.13;;;2.83;;
45011;SDS011;63444;48.148;11.542;2024-03-06T04:47:11;3.43;;;3.13;;
45011;SDS011;63444;48.148;11.542;2024-03-06T04:49:36;4.83;;;3.90;;
45011;SDS011;63444;48.148;11.542;2024-03-06T04:52:02;3.57;;;3.27;;
45011;SDS011;63444;48.148;11.542;2024-03-06T04:54:28;3.70;;;3.40;;
45011;SDS011;63444;48.148;11.542;2024-03-06T04:56:54;3.90;;;3.50;;
45011;SDS011;63444;48.148;11.542;2024-03-06T04:59:20;4.50;;;3.80;;
45011;SDS011;63444;48.148;11.542;2024-03-06T05:01:46;4.33;;;3.77;;
45011;SDS011;63444;48.148;11.542;2024-03-06T05:04:12;3.70;;;3.23;;
45011;SDS011;63444;48.148;11.542;2024-03-06T05:06:37;3.70;;;3.40;;
45011;SDS011;63444;48.148;11.542;2024-03-06T05:09:03;3.17;;;2.87;;
45011;SDS011;63444;48.148;11.542;2024-03-06T05:11:30;3.93;;;3.53;;
45011;SDS011;63444;48.148;11.542;2024-03-06T05:13:59;3.63;;;3.30;;
45011;SDS011;63444;48.148;11.542;2024-03-06T05:16:25;3.67;;;3.37;;
45011;SDS011;63444;48.148;11.542;2024-03-06T05:18:51;3.43;;;3.13;;
45011;SDS011;63444;48.148;11.542;2024-03-06T05:21:17;3.20;;;2.97;;
45011;SDS011;63444;48.148;11.542;2024-03-06T05:23:43;3.23;;;2.93;;
45011;SDS011;63444;48.148;11.542;2024-03-06T05:26:09;2.87;;;2.67;;
45011;SDS011;63444;48.148;11.542;2024-03-06T05:28:34;3.03;;;2.83;;
45011;SDS011;63444;48.148;11.542;2024-03-06T05:31:00;3.60;;;3.30;;
45011;SDS011;63444;48.148;11.542;2024-03-06T05:33:26;3.53;;;3.23;;
45011;SDS011;63444;48.148;11.542;2024-03-06T05:35:54;3.07;;;2.87;;
45011;SDS011;63444;48.148;11.542;2024-03-06T05:38:19;3.07;;;2.87;;
45011;SDS011;63444;48.148;11.542;2024-03-06T05:40:47;3.13;;;2.93;;
45011;SDS011;63444;48.148;11.542;2024-03-06T05:43:12;3.23;;;2.90;;
45011;SDS011;63444;48.148;11.542;2024-03-06T05:45:38;3.70;;;3.40;;
45011;SDS011;63444;48.148;11.542;2024-03-06T05:48:04;3.10;;;2.90;;
45011;SDS011;63444;48.148;11.542;2024-03-06T05:50:30;3.60;;;3.30;;
45011;SDS011;63444;48.148;11.542;2024-03-06T05:52:55;3.70;;;3.40;;
45011;SDS011;63444;48.148;11.542;2024-03-06T05:55:22;3.43;;;3.13;;
45011;SDS011;63444;48.148;11.542;2024-03-06T05:57:48;3.20;;;2.90;;
45011;SDS011;63444;48.148;11.542;2024-03-06T06:00:14;3.40;;;3.10;;
45011;SDS011;63444;48.148;11.542;2024-03-06T06:02:43;4.33;;;3.10;;
45011;SDS011;63444;48.148;11.542;2024-03-06T06:05:09;3.83;;;3.30;;
45011;SDS011;63444;48.148;11.542;2024-03-06T06:07:35;3.17;;;2.83;;
45011;SDS011;63444;48.148;11.542;2024-03-06T06:10:02;3.13;;;2.83;;
45011;SDS011;63444;48.148;11.542;2024-03-06T06:12:31;3.47;;;3.07;;
45011;SDS011;63444;48.148;11.542;2024-03-06T06:14:56;3.73;;;3.40;;
45011;SDS011;63444;48.148;11.542;2024-03-06T06:17:22;3.70;;;3.40;;
45011;SDS011;63444;48.148;11.542;2024-03-06T06:19:48;4.17;;;3.30;;
45011;SDS011;63444;48.148;11.542;2024-03-06T06:22:13;3.47;;;3.17;;
45011;SDS011;63444;48.148;11.542;2024-03-06T06:24:39;3.27;;;2.90;;
45011;SDS011;63444;48.148;11.542;2024-03-06T06:27:05;3.93;;;3.53;;
45011;SDS011;63444;48.148;11.542;2024-03-06T06:29:31;3.50;;;3.20;;
45011;SDS011;63444;48.148;11.542;2024-03-06T06:31:57;3.47;;;3.17;;
45011;SDS011;63444;48.148;11.542;2024-03-06T06:34:22;4.20;;;3.70;;
45011;SDS011;63444;48.148;11.542;2024-03-06T06:36:50;3.57;;;3.27;;
45011;SDS011;63444;48.148;11.542;2024-03-06T06:39:17;3.60;;;3.30;;
45011;SDS011;63444;48.148;11.542;2024-03-06T06:41:43;4.00;;;3.70;;
45011;SDS011;63444;48.148;11.542;2024-03-06T06:44:09;4.03;;;3.63;;
45011;SDS011;63444;48.148;11.542;2024-03-06T06:46:34;3.80;;;3.50;;
45011;SDS011;63444;48.148;11.542;2024-03-06T06:49:00;3.83;;;3.50;;
45011;SDS011;63444;48.148;11.542;2024-03-06T06:51:25;4.30;;;3.60;;
45011;SDS011;63444;48.148;11.542;2024-03-06T06:53:51;3.70;;;3.40;;
45011;SDS011;63444;48.148;11.542;2024-03-06T06:56:16;3.60;;;3.30;;
45011;SDS011;63444;48.148;11.542;2024-03-06T06:58:42;3.63;;;3.33;;
45011;SDS011;63444;48.148;11.542;2024-03-06T07:01:08;4.47;;;3.73;;
45011;SDS011;63444;48.148;11.542;2024-03-06T07:03:35;3.37;;;3.07;;
45011;SDS011;63444;48.148;11.542;2024-03-06T07:06:00;3.40;;;3.10;;
45011;SDS011;63444;48.148;11.542;2024-03-06T07:08:28;3.90;;;3.50;;
45011;SDS011;63444;48.148;11.542;2024-03-06T07:10:54;4.03;;;3.70;;
45011;SDS011;63444;48.148;11.542;2024-03-06T07:13:20;3.70;;;3.40;;
45011;SDS011;63444;48.148;11.542;2024-03-06T07:15:45;3.80;;;3.50;;
45011;SDS011;63444;48.148;11.542;2024-03-06T07:18:11;4.13;;;3.83;;
45011;SDS011;63444;48.148;11.542;2024-03-06T07:20:39;4.10;;;3.77;;
45011;SDS011;63444;48.148;11.542;2024-03-06T07:23:04;4.30;;;3.60;;
45011;SDS011;63444;48.148;11.542;2024-03-06T07:25:30;3.40;;;3.10;;
45011;SDS011;63444;48.148;11.542;2024-03-06T07:27:56;3.70;;;3.40;;
45011;SDS011;63444;48.148;11.542;2024-03-06T07:30:21;3.57;;;3.27;;
45011;SDS011;63444;48.148;11.542;2024-03-06T07:32:47;4.17;;;3.40;;
45011;SDS011;63444;48.148;11.542;2024-03-06T07:35:13;3.10;;;2.90;;
45011;SDS011;63444;48.148;11.542;2024-03-06T07:37:38;3.37;;;3.00;;
45011;SDS011;63444;48.148;11.542;2024-03-06T07:40:05;3.37;;;3.07;;
45011;SDS011;63444;48.148;11.542;2024-03-06T07:42:34;2.97;;;2.77;;
45011;SDS011;63444;48.148;11.542;2024-03-06T07:45:00;3.40;;;3.10;;
45011;SDS011;63444;48.148;11.542;2024-03-06T07:47:25;2.90;;;2.70;;
45011;SDS011;63444;48.148;11.542;2024-03-06T07:49:51;3.00;;;2.80;;
45011;SDS011;63444;48.148;11.542;2024-03-06T07:52:17;3.00;;;2.70;;
45011;SDS011;63444;48.148;11.542;2024-03-06T07:54:43;2.93;;;2.63;;
45011;SDS011;63444;48.148;11.542;2024-03-06T07:57:08;3.30;;;3.00;;
45011;SDS011;63444;48.148;11.542;2024-03-06T07:59:35;4.27;;;3.00;;
45011;SDS011;63444;48.148;11.542;2024-03-06T08:02:00;2.70;;;2.50;;
45011;SDS011;63444;48.148;11.542;2024-03-06T08:04:26;3.23;;;2.93;;
45011;SDS011;63444;48.148;11.542;2024-03-06T08:06:52;3.20;;;2.70;;
45011;SDS011;63444;48.148;11.542;2024-03-06T08:09:17;2.63;;;2.43;;
45011;SDS011;63444;48.148;11.542;2024-03-06T08:11:44;3.67;;;2.60;;
45011;SDS011;63444;48.148;11.542;2024-03-06T08:14:10;3.17;;;2.90;;
45011;SDS011;63444;48.148;11.542;2024-03-06T08:16:36;2.80;;;2.60;;
45011;SDS011;63444;48.148;11.542;2024-03-06T08:19:02;2.97;;;2.77;;
45011;SDS011;63444;48.148;11.542;2024-03-06T08:21:28;3.20;;;2.90;;
45011;SDS011;63444;48.148;11.542;2024-03-06T08:23:53;3.40;;;3.10;;
45011;SDS011;63444;48.148;11.542;2024-03-06T08:26:19;3.20;;;2.90;;
45011;SDS011;63444;48.148;11.542;2024-03-06T08:28:45;4.10;;;3.10;;
45011;SDS011;63444;48.148;11.542;2024-03-06T08:31:10;4.77;;;3.30;;
45011;SDS011;63444;48.148;11.542;2024-03-06T08:33:36;3.97;;;3.10;;
45011;SDS011;63444;48.148;11.542;2024-03-06T08:36:02;3.43;;;3.13;;
45011;SDS011;63444;48.148;11.542;2024-03-06T08:38:28;4.60;;;3.10;;
45011;SDS011;63444;48.148;11.542;2024-03-06T08:40:54;3.90;;;3.50;;
45011;SDS011;63444;48.148;11.542;2024-03-06T08:43:19;3.40;;;3.10;;
45011;SDS011;63444;48.148;11.542;2024-03-06T08:45:46;3.47;;;3.17;;
45011;SDS011;63444;48.148;11.542;2024-03-06T08:48:12;3.30;;;3.00;;
45011;SDS011;63444;48.148;11.542;2024-03-06T08:50:38;3.00;;;2.70;;
45011;SDS011;63444;48.148;11.542;2024-03-06T08:53:04;3.30;;;3.00;;
45011;SDS011;63444;48.148;11.542;2024-03-06T08:55:30;3.87;;;3.20;;
45011;SDS011;63444;48.148;11.542;2024-03-06T08:57:55;3.13;;;2.90;;
45011;SDS011;63444;48.148;11.542;2024-03-06T09:00:21;3.67;;;3.07;;
45011;SDS011;63444;48.148;11.542;2024-03-06T09:02:46;3.10;;;2.80;;
45011;SDS011;63444;48.148;11.542;2024-03-06T09:05:12;3.20;;;2.90;;
45011;SDS011;63444;48.148;11.542;2024-03-06T09:07:38;3.20;;;2.90;;
45011;SDS011;63444;48.148;11.542;2024-03-06T09:10:06;2.80;;;2.60;;
45011;SDS011;63444;48.148;11.542;2024-03-06T09:12:32;4.80;;;2.93;;
45011;SDS011;63444;48.148;11.542;2024-03-06T09:14:58;2.60;;;2.40;;
45011;SDS011;63444;48.148;11.542;2024-03-06T09:17:25;2.97;;;2.77;;
45011;SDS011;63444;48.148;11.542;2024-03-06T09:19:51;3.00;;;2.70;;
45011;SDS011;63444;48.148;11.542;2024-03-06T09:22:17;2.80;;;2.53;;
45011;SDS011;63444;48.148;11.542;2024-03-06T09:24:43;3.13;;;2.43;;
45011;SDS011;63444;48.148;11.542;2024-03-06T09:27:08;2.40;;;2.20;;
45011;SDS011;63444;48.148;11.542;2024-03-06T09:29:34;2.80;;;2.50;;
45011;SDS011;63444;48.148;11.542;2024-03-06T09:31:59;2.70;;;2.50;;
45011;SDS011;63444;48.148;11.542;2024-03-06T09:34:25;2.60;;;2.40;;
45011;SDS011;63444;48.148;11.542;2024-03-06T09:36:51;2.50;;;2.30;;
45011;SDS011;63444;48.148;11.542;2024-03-06T09:39:17;2.90;;;2.43;;
45011;SDS011;63444;48.148;11.542;2024-03-06T09:41:48;2.60;;;2.40;;
45011;SDS011;63444;48.148;11.542;2024-03-06T09:44:15;2.77;;;2.53;;
45011;SDS011;63444;48.148;11.542;2024-03-06T09:46:45;2.70;;;2.50;;
45011;SDS011;63444;48.148;11.542;2024-03-06T09:49:12;2.87;;;2.67;;
45011;SDS011;63444;48.148;11.542;2024-03-06T09:51:42;3.10;;;2.10;;
45011;SDS011;63444;48.148;11.542;2024-03-06T09:54:12;2.80;;;2.50;;
45011;SDS011;63444;48.148;11.542;2024-03-06T09:56:40;3.10;;;2.60;;
45011;SDS011;63444;48.148;11.542;2024-03-06T09:59:08;3.53;;;2.43;;
45011;SDS011;63444;48.148;11.542;2024-03-06T10:01:33;3.10;;;2.67;;
45011;SDS011;63444;48.148;11.542;2024-03-06T10:04:19;3.10;;;2.80;;
45011;SDS011;63444;48.148;11.542;2024-03-06T10:06:58;3.17;;;2.80;;
45011;SDS011;63444;48.148;11.542;2024-03-06T10:09:24;4.70;;;2.67;;
45011;SDS011;63444;48.148;11.542;2024-03-06T10:11:51;3.13;;;2.87;;
45011;SDS011;63444;48.148;11.542;2024-03-06T10:14:21;2.80;;;2.60;;
45011;SDS011;63444;48.148;11.542;2024-03-06T10:16:51;2.90;;;2.70;;
45011;SDS011;63444;48.148;11.542;2024-03-06T10:19:27;2.60;;;2.40;;
45011;SDS011;63444;48.148;11.542;2024-03-06T10:21:54;2.53;;;2.33;;
45011;SDS011;63444;48.148;11.542;2024-03-06T10:24:22;4.27;;;2.67;;
45011;SDS011;63444;48.148;11.542;2024-03-06T10:26:54;2.93;;;2.63;;
45011;SDS011;63444;48.148;11.542;2024-03-06T10:29:22;3.50;;;2.80;;
45011;SDS011;63444;48.148;11.542;2024-03-06T10:31:53;2.70;;;2.50;;
45011;SDS011;63444;48.148;11.542;2024-03-06T10:34:20;3.20;;;2.90;;
45011;SDS011;63444;48.148;11.542;2024-03-06T10:36:57;3.17;;;2.90;;
45011;SDS011;63444;48.148;11.542;2024-03-06T10:39:23;4.07;;;3.20;;
45011;SDS011;63444;48.148;11.542;2024-03-06T10:41:53;3.27;;;2.97;;
45011;SDS011;63444;48.148;11.542;2024-03-06T10:44:23;3.67;;;3.17;;
45011;SDS011;63444;48.148;11.542;2024-03-06T10:47:03;4.17;;;3.10;;
45011;SDS011;63444;48.148;11.542;2024-03-06T10:49:31;3.57;;;3.10;;
45011;SDS011;63444;48.148;11.542;2024-03-06T10:51:59;4.10;;;3.00;;
45011;SDS011;63444;48.148;11.542;2024-03-06T10:54:28;4.20;;;3.10;;
45011;SDS011;63444;48.148;11.542;2024-03-06T10:56:55;4.13;;;3.00;;
45011;SDS011;63444;48.148;11.542;2024-03-06T10:59:22;4.70;;;3.43;;
45011;SDS011;63444;48.148;11.542;2024-03-06T11:01:52;4.93;;;3.90;;
45011;SDS011;63444;48.148;11.542;2024-03-06T11:04:19;4.17;;;3.57;;
45011;SDS011;63444;48.148;11.542;2024-03-06T11:06:45;3.73;;;3.37;;
45011;SDS011;63444;48.148;11.542;2024-03-06T11:09:11;4.20;;;3.40;;
45011;SDS011;63444;48.148;11.542;2024-03-06T11:11:52;3.23;;;2.87;;
45011;SDS011;63444;48.148;11.542;2024-03-06T11:14:22;3.90;;;3.10;;
45011;SDS011;63444;48.148;11.542;2024-03-06T11:17:02;3.00;;;2.70;;
45011;SDS011;63444;48.148;11.542;2024-03-06T11:19:32;3.80;;;3.43;;
45011;SDS011;63444;48.148;11.542;2024-03-06T11:22:18;4.00;;;3.40;;
45011;SDS011;63444;48.148;11.542;2024-03-06T11:24:43;4.03;;;3.63;;
45011;SDS011;63444;48.148;11.542;2024-03-06T11:27:09;6.30;;;3.47;;
45011;SDS011;63444;48.148;11.542;2024-03-06T11:32:34;6.50;;;4.50;;
45011;SDS011;63444;48.148;11.542;2024-03-06T11:35:00;5.50;;;4.50;;
45011;SDS011;63444;48.148;11.542;2024-03-06T11:37:25;5.43;;;4.70;;
45011;SDS011;63444;48.148;11.542;2024-03-06T11:39:51;7.70;;;4.77;;
45011;SDS011;63444;48.148;11.542;2024-03-06T11:42:34;6.80;;;5.47;;
45011;SDS011;63444;48.148;11.542;2024-03-06T11:45:01;6.17;;;5.57;;
45011;SDS011;63444;48.148;11.542;2024-03-06T11:50:27;7.27;;;5.83;;
45011;SDS011;63444;48.148;11.542;2024-03-06T11:52:55;6.20;;;5.50;;
45011;SDS011;63444;48.148;11.542;2024-03-06T11:55:21;8.60;;;5.57;;
45011;SDS011;63444;48.148;11.542;2024-03-06T11:57:47;6.00;;;5.50;;
45011;SDS011;63444;48.148;11.542;2024-03-06T12:00:13;7.27;;;6.50;;
45011;SDS011;63444;48.148;11.542;2024-03-06T12:02:40;6.70;;;5.93;;
45011;SDS011;63444;48.148;11.542;2024-03-06T12:05:07;9.17;;;7.13;;
45011;SDS011;63444;48.148;11.542;2024-03-06T12:07:44;7.90;;;6.57;;
45011;SDS011;63444;48.148;11.542;2024-03-06T12:10:13;7.30;;;6.37;;
45011;SDS011;63444;48.148;11.542;2024-03-06T12:12:40;8.13;;;6.13;;
45011;SDS011;63444;48.148;11.542;2024-03-06T12:15:06;6.83;;;6.10;;
45011;SDS011;63444;48.148;11.542;2024-03-06T12:17:46;8.90;;;6.80;;
45011;SDS011;63444;48.148;11.542;2024-03-06T12:20:17;8.53;;;6.83;;
45011;SDS011;63444;48.148;11.542;2024-03-06T12:22:50;8.10;;;7.10;;
45011;SDS011;63444;48.148;11.542;2024-03-06T12:25:20;8.67;;;7.13;;
45011;SDS011;63444;48.148;11.542;2024-03-06T12:27:47;7.90;;;6.40;;
45011;SDS011;63444;48.148;11.542;2024-03-06T12:30:15;7.10;;;6.37;;
45011;SDS011;63444;48.148;11.542;2024-03-06T12:32:55;8.10;;;6.97;;
45011;SDS011;63444;48.148;11.542;2024-03-06T12:35:25;8.07;;;7.03;;
45011;SDS011;63444;48.148;11.542;2024-03-06T12:37:52;7.40;;;6.30;;
45011;SDS011;63444;48.148;11.542;2024-03-06T12:40:18;7.47;;;6.67;;
45011;SDS011;63444;48.148;11.542;2024-03-06T12:42:44;7.27;;;6.00;;
45011;SDS011;63444;48.148;11.542;2024-03-06T12:45:11;7.43;;;6.67;;
45011;SDS011;63444;48.148;11.542;2024-03-06T12:47:40;7.90;;;6.50;;
45011;SDS011;63444;48.148;11.542;2024-03-06T12:50:07;8.20;;;7.00;;
45011;SDS011;63444;48.148;11.542;2024-03-06T12:52:33;7.77;;;6.10;;
45011;SDS011;63444;48.148;11.542;2024-03-06T12:54:59;7.80;;;6.00;;
45011;SDS011;63444;48.148;11.542;2024-03-06T12:57:25;6.57;;;5.87;;
45011;SDS011;63444;48.148;11.542;2024-03-06T12:59:52;6.90;;;5.77;;
45011;SDS011;63444;48.148;11.542;2024-03-06T13:02:18;7.03;;;5.90;;
45011;SDS011;63444;48.148;11.542;2024-03-06T13:04:44;6.20;;;5.60;;
45011;SDS011;63444;48.148;11.542;2024-03-06T13:07:10;7.07;;;5.67;;
45011;SDS011;63444;48.148;11.542;2024-03-06T13:09:36;6.20;;;5.30;;
45011;SDS011;63444;48.148;11.542;2024-03-06T13:12:03;5.87;;;5.03;;
45011;SDS011;63444;48.148;11.542;2024-03-06T13:14:29;5.80;;;5.20;;
45011;SDS011;63444;48.148;11.542;2024-03-06T13:16:55;5.27;;;4.57;;
45011;SDS011;63444;48.148;11.542;2024-03-06T13:19:21;5.43;;;4.63;;
45011;SDS011;63444;48.148;11.542;2024-03-06T13:21:47;6.13;;;5.40;;
45011;SDS011;63444;48.148;11.542;2024-03-06T13:24:13;6.63;;;5.10;;
45011;SDS011;63444;48.148;11.542;2024-03-06T13:26:38;5.03;;;4.53;;
45011;SDS011;63444;48.148;11.542;2024-03-06T13:29:05;5.27;;;4.77;;
45011;SDS011;63444;48.148;11.542;2024-03-06T13:31:31;5.33;;;4.37;;
45011;SDS011;63444;48.148;11.542;2024-03-06T13:33:59;7.17;;;4.87;;
45011;SDS011;63444;48.148;11.542;2024-03-06T13:36:25;4.67;;;4.27;;
45011;SDS011;63444;48.148;11.542;2024-03-06T13:38:51;4.90;;;4.40;;
45011;SDS011;63444;48.148;11.542;2024-03-06T13:41:17;4.93;;;4.43;;
45011;SDS011;63444;48.148;11.542;2024-03-06T13:43:43;5.03;;;4.50;;
45011;SDS011;63444;48.148;11.542;2024-03-06T13:46:08;4.87;;;4.37;;
45011;SDS011;63444;48.148;11.542;2024-03-06T13:48:34;4.70;;;4.20;;
45011;SDS011;63444;48.148;11.542;2024-03-06T13:51:01;5.40;;;4.30;;
45011;SDS011;63444;48.148;11.542;2024-03-06T13:53:27;8.03;;;6.60;;
45011;SDS011;63444;48.148;11.542;2024-03-06T13:55:52;7.17;;;4.97;;
45011;SDS011;63444;48.148;11.542;2024-03-06T13:58:18;4.63;;;4.03;;
45011;SDS011;63444;48.148;11.542;2024-03-06T14:00:44;4.07;;;3.60;;
45011;SDS011;63444;48.148;11.542;2024-03-06T14:03:10;3.60;;;3.30;;
45011;SDS011;63444;48.148;11.542;2024-03-06T14:05:37;5.27;;;3.77;;
45011;SDS011;63444;48.148;11.542;2024-03-06T14:08:04;4.10;;;3.70;;
45011;SDS011;63444;48.148;11.542;2024-03-06T14:10:30;4.57;;;3.83;;
45011;SDS011;63444;48.148;11.542;2024-03-06T14:12:59;3.83;;;3.50;;
45011;SDS011;63444;48.148;11.542;2024-03-06T14:15:25;3.93;;;3.63;;
45011;SDS011;63444;48.148;11.542;2024-03-06T14:17:51;4.33;;;3.93;;
45011;SDS011;63444;48.148;11.542;2024-03-06T14:20:21;3.83;;;3.43;;
45011;SDS011;63444;48.148;11.542;2024-03-06T14:22:47;4.67;;;4.10;;
45011;SDS011;63444;48.148;11.542;2024-03-06T14:25:13;4.30;;;3.90;;
45011;SDS011;63444;48.148;11.542;2024-03-06T14:27:39;4.10;;;3.70;;
45011;SDS011;63444;48.148;11.542;2024-03-06T14:30:05;4.63;;;3.97;;
45011;SDS011;63444;48.148;11.542;2024-03-06T14:32:36;4.17;;;3.77;;